createdAt,value
2022-08-18T00:01:16.654Z,49.57
2022-08-18T00:03:55.456Z,49.92
2022-08-18T00:06:28.659Z,50.02
2022-08-18T00:08:58.992Z,49.90
2022-08-18T00:11:28.504Z,50.13
2022-08-18T00:14:22.245Z,49.90
2022-08-18T00:16:53.937Z,49.80
2022-08-18T00:19:47.192Z,50.01
2022-08-18T00:22:15.348Z,50.00
2022-08-18T00:24:55.154Z,49.94
2022-08-18T00:27:28.774Z,50.07
2022-08-18T00:29:59.433Z,49.88
2022-08-18T00:32:33.959Z,50.21
2022-08-18T00:35:08.028Z,50.25
2022-08-18T00:37:36.907Z,50.12
2022-08-18T00:40:05.093Z,50.49
2022-08-18T00:42:34.253Z,50.15
2022-08-18T00:45:04.394Z,50.22
2022-08-18T00:47:41.146Z,50.18
2022-08-18T00:50:37.628Z,50.83
2022-08-18T00:53:15.188Z,50.65
2022-08-18T00:55:51.355Z,51.11
2022-08-18T00:58:35.334Z,51.10
2022-08-18T01:01:07.018Z,51.22
2022-08-18T01:03:40.062Z,51.15
2022-08-18T01:06:16.094Z,51.01
2022-08-18T01:08:44.601Z,51.10
2022-08-18T01:11:14.631Z,51.58
2022-08-18T01:13:44.098Z,51.54
2022-08-18T01:16:30.963Z,51.37
2022-08-18T01:19:17.504Z,51.41
2022-08-18T01:21:51.970Z,51.61
2022-08-18T01:24:46.881Z,51.53
2022-08-18T01:27:18.820Z,51.69
2022-08-18T01:29:49.773Z,51.53
2022-08-18T01:32:23.319Z,51.66
2022-08-18T01:34:52.716Z,51.78
2022-08-18T01:37:23.007Z,51.62
2022-08-18T01:41:00.999Z,51.57
2022-08-18T01:42:39.784Z,51.98
2022-08-18T01:45:08.836Z,52.24
2022-08-18T01:47:47.713Z,52.64
2022-08-18T01:50:17.808Z,52.76
2022-08-18T01:52:45.522Z,52.73
2022-08-18T01:55:14.804Z,52.90
2022-08-18T01:57:43.272Z,52.81
2022-08-18T02:00:14.189Z,53.38
2022-08-18T02:02:42.345Z,53.31
2022-08-18T02:05:15.844Z,53.28
2022-08-18T02:07:44.485Z,53.35
2022-08-18T02:10:12.755Z,53.56
2022-08-18T02:12:44.738Z,53.72
2022-08-18T02:15:13.179Z,53.78
2022-08-18T02:17:45.812Z,53.75
2022-08-18T02:20:16.942Z,53.86
2022-08-18T02:22:45.781Z,54.08
2022-08-18T02:25:14.579Z,53.93
2022-08-18T02:27:43.109Z,54.04
2022-08-18T02:30:14.226Z,54.01
2022-08-18T02:32:43.285Z,54.15
2022-08-18T02:35:12.274Z,54.17
2022-08-18T02:37:42.196Z,53.88
2022-08-18T02:40:15.010Z,54.15
2022-08-18T02:42:46.492Z,53.96
2022-08-18T02:45:15.109Z,54.39
2022-08-18T02:47:44.333Z,54.39
2022-08-18T02:50:14.079Z,54.60
2022-08-18T02:52:41.605Z,54.47
2022-08-18T02:55:10.300Z,54.79
2022-08-18T02:57:42.233Z,54.60
2022-08-18T03:00:16.554Z,54.32
2022-08-18T03:02:48.676Z,54.42
2022-08-18T03:05:16.698Z,54.61
2022-08-18T03:07:45.595Z,54.47
2022-08-18T03:10:32.732Z,54.61
2022-08-18T03:13:01.935Z,54.66
2022-08-18T03:15:30.002Z,54.55
2022-08-18T03:17:58.343Z,54.78
2022-08-18T03:20:30.199Z,54.87
2022-08-18T03:22:58.995Z,54.77
2022-08-18T03:25:26.564Z,54.87
2022-08-18T03:27:54.457Z,54.90
2022-08-18T03:30:22.022Z,55.03
2022-08-18T03:32:53.627Z,55.10
2022-08-18T03:35:23.468Z,55.14
2022-08-18T03:37:51.807Z,55.26
2022-08-18T03:40:19.467Z,55.59
2022-08-18T03:42:46.932Z,55.86
2022-08-18T03:45:17.746Z,55.70
2022-08-18T03:47:46.222Z,55.72
2022-08-18T03:50:14.365Z,56.13
2022-08-18T03:52:42.396Z,56.22
2022-08-18T03:55:10.165Z,56.79
2022-08-18T03:57:38.951Z,57.08
2022-08-18T04:00:09.806Z,56.64
2022-08-18T04:02:38.243Z,57.43
2022-08-18T04:05:07.272Z,57.85
2022-08-18T04:07:37.500Z,58.14
2022-08-18T04:10:05.643Z,58.69
2022-08-18T04:12:43.373Z,59.07
2022-08-18T04:15:11.323Z,58.91
2022-08-18T04:17:56.059Z,58.97
2022-08-18T04:20:28.303Z,59.22
2022-08-18T04:22:57.088Z,60.09
2022-08-18T04:25:28.350Z,60.31
2022-08-18T04:28:01.338Z,60.43
2022-08-18T04:30:29.253Z,60.89
2022-08-18T04:32:56.739Z,60.49
2022-08-18T04:35:24.534Z,59.74
2022-08-18T04:37:52.236Z,60.63
2022-08-18T04:40:24.970Z,60.43
2022-08-18T04:42:52.834Z,61.16
2022-08-18T04:45:20.466Z,61.58
2022-08-18T04:47:48.080Z,61.53
2022-08-18T04:50:15.594Z,61.78
2022-08-18T04:53:03.760Z,60.02
2022-08-18T04:55:31.276Z,59.88
2022-08-18T04:57:59.646Z,61.18
2022-08-18T05:00:26.997Z,61.65
2022-08-18T05:02:54.669Z,61.85
2022-08-18T05:05:23.842Z,60.79
2022-08-18T05:07:51.370Z,61.05
2022-08-18T05:10:19.455Z,60.60
2022-08-18T05:12:48.685Z,61.63
2022-08-18T05:15:19.064Z,61.76
2022-08-18T05:17:49.322Z,60.22
2022-08-18T05:20:19.050Z,60.72
2022-08-18T05:22:46.989Z,59.61
2022-08-18T05:25:15.419Z,57.40
2022-08-18T05:27:44.250Z,57.79
2022-08-18T05:30:13.797Z,58.16
2022-08-18T05:32:48.520Z,58.18
2022-08-18T05:35:34.301Z,58.97
2022-08-18T05:38:26.351Z,58.72
2022-08-18T05:41:14.274Z,59.32
2022-08-18T05:43:51.515Z,58.90
2022-08-18T05:46:25.403Z,59.02
2022-08-18T05:48:53.094Z,58.08
2022-08-18T05:51:29.716Z,58.42
2022-08-18T05:54:16.689Z,57.11
2022-08-18T05:56:47.578Z,56.88
2022-08-18T05:59:26.721Z,55.37
2022-08-18T06:02:04.587Z,56.47
2022-08-18T06:04:48.232Z,54.68
2022-08-18T06:07:34.968Z,55.12
2022-08-18T06:10:06.609Z,57.58
2022-08-18T06:12:46.692Z,57.38
2022-08-18T06:15:21.195Z,54.28
2022-08-18T06:17:58.337Z,54.15
2022-08-18T06:20:50.981Z,55.14
2022-08-18T06:23:41.278Z,57.30
2022-08-18T06:26:13.865Z,56.20
2022-08-18T06:29:01.229Z,56.52
2022-08-18T06:31:46.966Z,55.45
2022-08-18T06:34:41.147Z,54.50
2022-08-18T06:37:56.691Z,54.31
2022-08-18T06:40:24.981Z,53.83
2022-08-18T06:42:52.663Z,55.15
2022-08-18T06:45:35.769Z,55.03
2022-08-18T06:48:15.170Z,55.31
2022-08-18T06:50:52.393Z,55.17
2022-08-18T06:53:27.311Z,52.73
2022-08-18T06:55:56.361Z,50.63
2022-08-18T06:58:30.516Z,51.68
2022-08-18T07:01:01.886Z,53.02
2022-08-18T07:03:46.842Z,51.09
2022-08-18T07:06:42.138Z,49.94
2022-08-18T07:09:23.642Z,51.39
2022-08-18T07:12:03.670Z,50.86
2022-08-18T07:14:31.387Z,49.62
2022-08-18T07:17:09.123Z,52.62
2022-08-18T07:19:37.235Z,48.85
2022-08-18T07:22:14.956Z,49.05
2022-08-18T07:24:49.158Z,49.09
2022-08-18T07:27:19.358Z,49.04
2022-08-18T07:30:08.612Z,48.47
2022-08-18T07:32:48.924Z,49.32
2022-08-18T07:35:24.412Z,49.47
2022-08-18T07:38:18.696Z,50.28
2022-08-18T07:40:59.794Z,48.44
2022-08-18T07:43:52.087Z,46.39
2022-08-18T07:46:39.591Z,48.02
2022-08-18T07:49:08.348Z,48.87
2022-08-18T07:51:53.074Z,45.75
2022-08-18T07:54:51.104Z,49.79
2022-08-18T07:57:42.254Z,47.50
2022-08-18T08:01:02.879Z,47.67
2022-08-18T08:03:45.121Z,46.86
2022-08-18T08:06:28.694Z,48.54
2022-08-18T08:09:14.492Z,45.70
2022-08-18T08:11:57.035Z,47.67
2022-08-18T08:14:56.715Z,48.73
2022-08-18T08:17:47.958Z,46.17
2022-08-18T08:20:39.808Z,46.21
2022-08-18T08:23:28.847Z,45.08
2022-08-18T08:26:05.335Z,44.01
2022-08-18T08:28:50.343Z,44.34
2022-08-18T08:31:37.196Z,45.81
2022-08-18T08:34:20.425Z,46.00
2022-08-18T08:36:49.353Z,44.11
2022-08-18T08:39:26.012Z,42.63
2022-08-18T08:42:31.815Z,41.38
2022-08-18T08:45:10.467Z,42.49
2022-08-18T08:47:50.122Z,45.49
2022-08-18T08:50:23.647Z,44.01
2022-08-18T08:53:17.057Z,44.08
2022-08-18T08:55:51.512Z,42.77
2022-08-18T08:58:46.663Z,42.38
2022-08-18T09:01:35.784Z,37.13
2022-08-18T09:04:18.229Z,37.57
2022-08-18T09:07:02.886Z,39.74
2022-08-18T09:09:49.067Z,40.63
2022-08-18T09:12:58.756Z,39.87
2022-08-18T09:15:53.695Z,38.38
2022-08-18T09:18:37.483Z,40.21
2022-08-18T09:21:37.959Z,36.16
2022-08-18T09:24:15.692Z,40.07
2022-08-18T09:27:15.511Z,37.40
2022-08-18T09:30:00.340Z,38.00
2022-08-18T09:32:28.075Z,39.09
2022-08-18T09:35:25.081Z,38.80
2022-08-18T09:38:41.572Z,38.11
2022-08-18T09:41:36.065Z,35.84
2022-08-18T09:44:11.938Z,37.04
2022-08-18T09:46:53.720Z,37.83
2022-08-18T09:49:27.417Z,38.27
2022-08-18T09:52:02.135Z,36.65
2022-08-18T09:54:32.184Z,35.71
2022-08-18T09:57:19.483Z,36.48
2022-08-18T09:59:49.172Z,34.96
2022-08-18T10:05:22.518Z,34.24
2022-08-18T10:08:08.116Z,35.28
2022-08-18T10:11:08.983Z,33.83
2022-08-18T10:13:53.386Z,32.66
2022-08-18T10:16:21.532Z,33.56
2022-08-18T10:19:14.720Z,34.36
2022-08-18T10:22:01.653Z,33.34
2022-08-18T10:24:56.768Z,35.02
2022-08-18T10:27:45.261Z,34.42
2022-08-18T10:31:06.521Z,31.01
2022-08-18T10:34:16.369Z,32.98
2022-08-18T10:36:58.883Z,33.37
2022-08-18T10:39:41.800Z,34.11
2022-08-18T10:42:34.335Z,32.07
2022-08-18T10:45:31.005Z,32.97
2022-08-18T10:48:19.745Z,32.78
2022-08-18T10:51:00.180Z,34.68
2022-08-18T10:53:55.309Z,34.16
2022-08-18T10:56:33.512Z,33.82
2022-08-18T10:59:16.340Z,32.54
2022-08-18T11:02:06.085Z,33.75
2022-08-18T11:04:43.289Z,32.21
2022-08-18T11:07:26.492Z,31.65
2022-08-18T11:10:13.319Z,31.90
2022-08-18T11:13:07.609Z,31.64
2022-08-18T11:16:03.655Z,31.83
2022-08-18T11:18:43.431Z,31.86
2022-08-18T11:21:32.941Z,31.64
2022-08-18T11:24:22.093Z,32.65
2022-08-18T11:26:53.105Z,32.68
2022-08-18T11:29:40.214Z,33.05
2022-08-18T11:32:32.625Z,33.76
2022-08-18T11:35:11.219Z,33.01
2022-08-18T11:37:51.600Z,32.94
2022-08-18T11:41:02.378Z,32.03
2022-08-18T11:43:17.368Z,32.90
2022-08-18T11:46:02.897Z,30.78
2022-08-18T11:48:52.103Z,32.18
2022-08-18T11:51:32.746Z,31.42
2022-08-18T11:54:13.396Z,33.77
2022-08-18T11:56:40.999Z,32.08
2022-08-18T11:59:52.265Z,31.62
2022-08-18T12:02:19.339Z,32.98
2022-08-18T12:05:08.687Z,31.03
2022-08-18T12:07:57.025Z,31.45
2022-08-18T12:10:29.437Z,31.40
2022-08-18T12:13:03.490Z,33.65
2022-08-18T12:15:46.660Z,33.84
2022-08-18T12:21:06.902Z,33.22
2022-08-18T12:23:39.069Z,33.00
2022-08-18T12:26:26.994Z,30.64
2022-08-18T12:29:08.956Z,32.01
2022-08-18T12:34:29.636Z,30.17
2022-08-18T12:37:10.267Z,30.38
2022-08-18T12:39:43.435Z,29.35
2022-08-18T12:42:12.893Z,30.94
2022-08-18T12:44:41.840Z,31.52
2022-08-18T12:47:23.707Z,32.67
2022-08-18T12:49:52.425Z,32.32
2022-08-18T12:52:20.721Z,30.55
2022-08-18T12:54:55.401Z,30.29
2022-08-18T12:57:51.704Z,31.50
2022-08-18T13:00:18.738Z,29.81
2022-08-18T13:02:47.125Z,29.25
2022-08-18T13:05:15.827Z,28.23
2022-08-18T13:07:46.763Z,29.76
2022-08-18T13:10:21.815Z,29.29
2022-08-18T13:13:03.951Z,29.41
2022-08-18T13:15:33.668Z,29.78
2022-08-18T13:18:02.969Z,30.19
2022-08-18T13:20:32.319Z,31.93
2022-08-18T13:23:00.542Z,29.57
2022-08-18T13:25:38.347Z,31.15
2022-08-18T13:28:08.011Z,32.38
2022-08-18T13:30:36.710Z,30.68
2022-08-18T13:33:35.228Z,30.41
2022-08-18T13:35:57.103Z,28.04
2022-08-18T13:38:27.820Z,29.74
2022-08-18T13:41:01.071Z,26.27
2022-08-18T13:43:34.431Z,27.30
2022-08-18T13:46:09.094Z,27.36
2022-08-18T13:48:41.607Z,26.58
2022-08-18T13:51:15.309Z,28.37
2022-08-18T13:53:51.134Z,26.50
2022-08-18T13:56:31.322Z,28.01
2022-08-18T13:59:00.128Z,25.63
2022-08-18T14:01:51.307Z,25.39
2022-08-18T14:04:20.021Z,24.31
2022-08-18T14:06:56.856Z,25.67
2022-08-18T14:09:27.923Z,25.69
2022-08-18T14:12:22.927Z,27.64
2022-08-18T14:14:54.269Z,28.22
2022-08-18T14:17:25.767Z,25.85
2022-08-18T14:20:15.346Z,27.67
2022-08-18T14:23:11.099Z,27.92
2022-08-18T14:25:59.677Z,27.81
2022-08-18T14:28:30.534Z,28.73
2022-08-18T14:31:01.681Z,28.00
2022-08-18T14:33:49.390Z,27.41
2022-08-18T14:36:20.454Z,27.23
2022-08-18T14:39:00.715Z,25.29
2022-08-18T14:41:30.620Z,26.45
2022-08-18T14:44:13.042Z,26.51
2022-08-18T14:46:54.562Z,27.73
2022-08-18T14:49:28.389Z,28.89
2022-08-18T14:52:00.466Z,28.29
2022-08-18T14:54:30.583Z,27.89
2022-08-18T14:57:05.604Z,27.35
2022-08-18T14:59:37.674Z,26.47
2022-08-18T15:02:11.115Z,29.25
2022-08-18T15:04:55.966Z,28.54
2022-08-18T15:07:25.011Z,29.44
2022-08-18T15:10:15.198Z,27.68
2022-08-18T15:12:45.311Z,28.62
2022-08-18T15:15:17.660Z,28.63
2022-08-18T15:17:50.309Z,29.48
2022-08-18T15:20:29.770Z,28.44
2022-08-18T15:23:24.873Z,27.76
2022-08-18T15:25:56.759Z,28.11
2022-08-18T15:28:27.812Z,28.55
2022-08-18T15:33:44.497Z,27.62
2022-08-18T15:36:28.736Z,27.91
2022-08-18T15:38:59.684Z,28.10
2022-08-18T15:44:22.791Z,29.76
2022-08-18T15:46:53.457Z,29.13
2022-08-18T15:49:24.697Z,28.57
2022-08-18T15:51:57.901Z,29.04
2022-08-18T15:54:26.212Z,29.80
2022-08-18T15:56:58.324Z,30.16
2022-08-18T15:59:39.737Z,30.62
2022-08-18T16:02:11.553Z,31.67
2022-08-18T16:04:44.910Z,31.61
2022-08-18T16:07:17.888Z,31.47
2022-08-18T16:09:54.233Z,31.72
2022-08-18T16:12:22.168Z,31.61
2022-08-18T16:14:53.151Z,31.95
2022-08-18T16:17:29.884Z,32.65
2022-08-18T16:20:00.228Z,33.19
2022-08-18T16:22:29.089Z,34.16
2022-08-18T16:24:57.001Z,32.63
2022-08-18T16:27:25.394Z,33.79
2022-08-18T16:29:53.786Z,34.44
2022-08-18T16:32:21.864Z,34.28
2022-08-18T16:34:50.298Z,34.78
2022-08-18T16:37:18.360Z,35.07
2022-08-18T16:39:46.816Z,35.60
2022-08-18T16:42:15.558Z,34.45
2022-08-18T16:44:44.393Z,34.24
2022-08-18T16:47:14.737Z,34.46
2022-08-18T16:49:43.463Z,34.85
2022-08-18T16:52:14.316Z,34.87
2022-08-18T16:54:44.446Z,35.21
2022-08-18T16:57:13.843Z,35.40
2022-08-18T17:00:01.093Z,34.88
2022-08-18T17:03:01.719Z,35.14
2022-08-18T17:05:34.632Z,35.41
2022-08-18T17:08:04.421Z,35.72
2022-08-18T17:10:48.227Z,35.45
2022-08-18T17:13:23.821Z,35.27
2022-08-18T17:15:51.838Z,36.07
2022-08-18T17:18:20.210Z,35.76
2022-08-18T17:20:48.366Z,36.06
2022-08-18T17:23:16.311Z,36.13
2022-08-18T17:25:45.789Z,36.55
2022-08-18T17:28:23.862Z,36.30
2022-08-18T17:30:54.164Z,36.60
2022-08-18T17:33:28.737Z,36.64
2022-08-18T17:35:58.671Z,36.57
2022-08-18T17:38:36.460Z,36.93
2022-08-18T17:41:05.802Z,37.16
2022-08-18T17:43:36.338Z,37.03
2022-08-18T17:46:15.181Z,37.33
2022-08-18T17:48:48.730Z,37.80
2022-08-18T17:51:43.396Z,37.68
2022-08-18T17:54:38.493Z,38.01
2022-08-18T17:57:17.147Z,38.08
2022-08-18T17:59:52.377Z,37.91
2022-08-18T18:02:29.673Z,38.44
2022-08-18T18:05:00.738Z,38.18
2022-08-18T18:07:35.988Z,38.39
2022-08-18T18:10:40.161Z,38.47
2022-08-18T18:13:13.338Z,38.45
2022-08-18T18:15:44.665Z,38.55
2022-08-18T18:18:23.436Z,38.29
2022-08-18T18:21:19.712Z,38.75
2022-08-18T18:23:56.633Z,39.03
2022-08-18T18:26:35.252Z,38.78
2022-08-18T18:29:37.949Z,38.90
2022-08-18T18:32:45.889Z,38.93
2022-08-18T18:35:17.220Z,39.29
2022-08-18T18:37:53.610Z,39.14
2022-08-18T18:40:32.689Z,39.25
2022-08-18T18:43:25.996Z,39.10
2022-08-18T18:46:18.367Z,39.29
2022-08-18T18:49:08.559Z,39.69
2022-08-18T18:51:44.207Z,39.91
2022-08-18T18:54:15.146Z,39.83
2022-08-18T18:56:53.513Z,40.07
2022-08-18T18:59:35.299Z,39.97
2022-08-18T19:02:32.881Z,40.43
2022-08-18T19:05:26.826Z,40.65
2022-08-18T19:08:19.932Z,40.59
2022-08-18T19:11:08.874Z,40.67
2022-08-18T19:13:49.469Z,40.85
2022-08-18T19:16:33.661Z,40.93
2022-08-18T19:19:35.513Z,40.87
2022-08-18T19:22:19.850Z,41.18
2022-08-18T19:24:56.553Z,41.18
2022-08-18T19:27:37.210Z,41.11
2022-08-18T19:30:13.609Z,41.33
2022-08-18T19:32:48.441Z,41.27
2022-08-18T19:35:19.765Z,41.60
2022-08-18T19:38:12.675Z,41.70
2022-08-18T19:40:54.788Z,41.64
2022-08-18T19:43:36.384Z,42.00
2022-08-18T19:46:27.171Z,42.09
2022-08-18T19:49:04.666Z,42.19
2022-08-18T19:51:40.054Z,42.04
2022-08-18T19:54:40.628Z,42.11
2022-08-18T19:57:19.268Z,42.00
2022-08-18T20:00:27.850Z,42.11
2022-08-18T20:03:18.979Z,42.13
2022-08-18T20:06:33.372Z,42.37
2022-08-18T20:09:02.772Z,42.73
2022-08-18T20:11:48.472Z,42.62
2022-08-18T20:14:21.839Z,42.80
2022-08-18T20:17:10.602Z,42.65
2022-08-18T20:19:40.047Z,43.00
2022-08-18T20:22:16.131Z,42.63
2022-08-18T20:24:52.319Z,42.83
2022-08-18T20:27:40.837Z,43.18
2022-08-18T20:30:09.448Z,43.08
2022-08-18T20:32:36.964Z,43.18
2022-08-18T20:35:41.316Z,43.37
2022-08-18T20:38:34.306Z,42.86
2022-08-18T20:41:32.481Z,43.32
2022-08-18T20:44:29.547Z,43.59
2022-08-18T20:47:06.470Z,43.38
2022-08-18T20:49:53.997Z,42.65
2022-08-18T20:52:37.809Z,43.18
2022-08-18T20:55:36.391Z,43.83
2022-08-18T20:58:12.967Z,43.59
2022-08-18T21:00:44.987Z,43.90
2022-08-18T21:03:15.461Z,44.38
2022-08-18T21:05:45.470Z,44.83
2022-08-18T21:08:16.989Z,45.02
2022-08-18T21:10:51.676Z,45.20
2022-08-18T21:13:41.267Z,44.62
2022-08-18T21:16:38.649Z,44.71
2022-08-18T21:19:23.768Z,44.55
2022-08-18T21:21:56.471Z,44.14
2022-08-18T21:24:51.093Z,44.19
2022-08-18T21:27:36.286Z,44.11
2022-08-18T21:30:09.422Z,44.17
2022-08-18T21:32:38.854Z,44.50
2022-08-18T21:35:30.027Z,43.96
2022-08-18T21:38:01.759Z,43.98
2022-08-18T21:40:39.139Z,44.02
2022-08-18T21:43:13.503Z,43.99
2022-08-18T21:45:56.236Z,44.01
2022-08-18T21:48:24.012Z,43.94
2022-08-18T21:50:58.602Z,43.77
2022-08-18T21:53:34.707Z,43.91
2022-08-18T21:56:03.299Z,44.44
2022-08-18T21:58:47.226Z,44.36
2022-08-18T22:01:22.163Z,44.53
2022-08-18T22:03:53.201Z,44.66
2022-08-18T22:06:35.948Z,44.62
2022-08-18T22:09:28.553Z,44.33
2022-08-18T22:12:53.267Z,44.12
2022-08-18T22:15:21.462Z,45.01
2022-08-18T22:18:35.730Z,45.09
2022-08-18T22:21:08.188Z,44.92
2022-08-18T22:24:04.163Z,45.16
2022-08-18T22:26:36.216Z,44.99
2022-08-18T22:29:10.597Z,45.29
2022-08-18T22:31:45.743Z,45.30
2022-08-18T22:34:27.903Z,45.20
2022-08-18T22:37:13.863Z,45.14
2022-08-18T22:40:00.717Z,45.01
2022-08-18T22:42:34.968Z,44.84
2022-08-18T22:45:13.705Z,45.06
2022-08-18T22:47:45.086Z,45.11
2022-08-18T22:50:14.636Z,44.85
2022-08-18T22:52:48.426Z,44.58
2022-08-18T22:55:22.055Z,44.76
2022-08-18T22:57:56.115Z,44.49
2022-08-18T23:00:26.282Z,44.41
2022-08-18T23:02:55.442Z,44.59
2022-08-18T23:05:23.938Z,44.42
2022-08-18T23:07:51.939Z,44.67
2022-08-18T23:10:19.401Z,44.51
2022-08-18T23:12:48.855Z,44.36
2022-08-18T23:15:18.259Z,44.80
2022-08-18T23:17:45.976Z,44.93
2022-08-18T23:20:18.010Z,44.53
2022-08-18T23:22:48.339Z,44.50
2022-08-18T23:25:17.435Z,44.57
2022-08-18T23:27:45.594Z,44.78
2022-08-18T23:30:15.412Z,44.66
2022-08-18T23:32:43.956Z,44.86
2022-08-18T23:35:12.203Z,44.81
2022-08-18T23:37:41.790Z,44.77
2022-08-18T23:40:15.872Z,44.92
2022-08-18T23:42:44.104Z,44.56
2022-08-18T23:45:12.533Z,44.75
2022-08-18T23:47:41.667Z,44.55
2022-08-18T23:50:11.662Z,44.81
2022-08-18T23:52:41.708Z,44.87
2022-08-18T23:55:14.043Z,44.77
2022-08-18T23:57:41.768Z,44.81
